Time;durP1;ratioP1;P1;durP2;ratioP2;P2;SDS_P1;SDS_P2;PMS_P1;PMS_P2;Temp;Humidity;BMP_temperature;BMP_pressure;BME280_temperature;BME280_humidity;BME280_pressure;Samples;Min_cycle;Max_cycle;Signal;HPM_P1;HPM_P2
2022/05/15 00:01:31;;;;;;;0.00;0.00;;;12.80;1.00;226.50;231333.00;;;;5078888;28;20220;-69
2022/05/15 00:04:01;;;;;;;0.10;0.10;;;12.90;1.00;226.50;231333.00;;;;5080269;28;20220;-69
2022/05/15 00:06:30;;;;;;;0.00;0.00;;;12.90;1.00;226.50;231333.00;;;;5088460;28;20613;-69
2022/05/15 00:08:59;;;;;;;0.00;0.00;;;12.90;1.00;226.50;231333.00;;;;5070491;28;20200;-70
2022/05/15 00:11:28;;;;;;;0.10;0.10;;;12.90;1.00;226.50;231333.00;;;;5086439;28;20220;-69
2022/05/15 00:13:58;;;;;;;0.10;0.10;;;13.00;1.00;226.50;231333.00;;;;5095154;28;20194;-69
2022/05/15 00:16:26;;;;;;;0.03;0.03;;;12.80;1.00;226.50;231333.00;;;;5094108;28;20208;-70
2022/05/15 00:18:55;;;;;;;0.00;0.00;;;12.80;1.00;226.50;231333.00;;;;5094265;28;20194;-69
2022/05/15 00:21:24;;;;;;;0.10;0.10;;;12.80;1.00;226.50;231333.00;;;;5094513;28;20220;-69
2022/05/15 00:23:52;;;;;;;0.00;0.00;;;12.70;1.00;226.50;231333.00;;;;5080458;28;20197;-69
2022/05/15 00:26:21;;;;;;;0.10;0.10;;;12.80;1.00;226.50;231333.00;;;;5094782;28;20590;-69
2022/05/15 00:28:52;;;;;;;0.10;0.10;;;12.80;1.00;226.50;231333.00;;;;5094447;28;20185;-69
2022/05/15 00:31:22;;;;;;;0.10;0.10;;;12.80;1.00;226.50;231333.00;;;;5093469;28;20244;-68
2022/05/15 00:33:51;;;;;;;0.00;0.00;;;12.70;1.00;226.50;231333.00;;;;5094719;28;20197;-68
2022/05/15 00:36:19;;;;;;;0.10;0.10;;;12.60;1.00;226.50;231333.00;;;;5094624;28;20189;-68
2022/05/15 00:38:51;;;;;;;0.10;0.10;;;12.70;1.00;226.50;231333.00;;;;5093630;28;20197;-68
2022/05/15 00:41:20;;;;;;;0.10;0.10;;;12.70;1.00;226.50;231333.00;;;;5082737;28;20295;-69
2022/05/15 00:43:52;;;;;;;0.10;0.10;;;12.60;1.00;226.50;231333.00;;;;5092521;28;20197;-69
2022/05/15 00:46:26;;;;;;;0.00;0.00;;;12.60;1.00;226.50;231333.00;;;;5093770;28;20209;-69
2022/05/15 00:48:57;;;;;;;0.10;0.10;;;12.60;1.00;226.50;231333.00;;;;5085037;28;20235;-69
2022/05/15 00:51:38;;;;;;;0.10;0.10;;;12.50;1.00;226.50;231333.00;;;;5086832;28;20224;-69
2022/05/15 00:54:12;;;;;;;0.10;0.10;;;12.50;1.00;226.50;231333.00;;;;5057220;28;20193;-68
2022/05/15 00:56:51;;;;;;;0.10;0.10;;;12.40;1.00;226.50;231333.00;;;;5093721;28;20300;-69
2022/05/15 00:59:24;;;;;;;0.10;0.10;;;12.30;1.00;226.50;231333.00;;;;5094418;28;20246;-68
2022/05/15 01:01:54;;;;;;;0.10;0.10;;;12.30;1.00;226.50;231333.00;;;;5092913;28;20217;-69
2022/05/15 01:04:22;;;;;;;0.00;0.00;;;12.20;14.00;226.50;231333.00;;;;5092767;28;20676;-68
2022/05/15 01:06:52;;;;;;;0.10;0.10;;;12.20;42.90;226.50;231333.00;;;;5075461;28;20751;-68
2022/05/15 01:09:22;;;;;;;0.00;0.00;;;12.10;90.30;226.50;231333.00;;;;5092926;28;20224;-69
2022/05/15 01:11:51;;;;;;;0.10;0.10;;;12.00;88.80;226.50;231333.00;;;;5093830;28;20209;-69
2022/05/15 01:14:21;;;;;;;0.10;0.10;;;11.90;99.90;226.50;231333.00;;;;5093997;28;20268;-68
2022/05/15 01:16:50;;;;;;;0.10;0.10;;;11.80;99.90;226.50;231333.00;;;;5071509;28;20193;-69
2022/05/15 01:19:34;;;;;;;0.10;0.10;;;11.80;99.90;226.50;231333.00;;;;5074310;28;20193;-68
2022/05/15 01:22:07;;;;;;;0.05;0.05;;;11.80;99.90;226.50;231333.00;;;;5087698;28;20221;-69
2022/05/15 01:24:35;;;;;;;0.10;0.10;;;11.70;99.90;226.50;231333.00;;;;5075151;28;20654;-69
2022/05/15 01:27:09;;;;;;;0.10;0.10;;;11.60;99.90;226.50;231333.00;;;;5092073;28;20221;-70
2022/05/15 01:29:47;;;;;;;0.10;0.10;;;11.60;99.90;226.50;231333.00;;;;5073905;28;20220;-70
2022/05/15 01:32:18;;;;;;;0.10;0.10;;;11.60;99.90;226.50;231333.00;;;;5072876;28;20221;-69
2022/05/15 01:34:47;;;;;;;0.03;0.03;;;11.60;99.90;226.50;231333.00;;;;5092446;28;20189;-70
2022/05/15 01:37:17;;;;;;;0.10;0.10;;;11.60;1.00;226.50;231333.00;;;;5075812;28;20197;-69
2022/05/15 01:39:45;;;;;;;0.10;0.10;;;11.70;1.00;226.50;231333.00;;;;5063132;28;20277;-69
2022/05/15 01:42:14;;;;;;;0.10;0.10;;;11.70;1.00;226.50;231333.00;;;;5071600;28;20217;-69
2022/05/15 01:44:43;;;;;;;0.10;0.10;;;11.70;99.90;226.50;231333.00;;;;5075422;28;20194;-70
2022/05/15 01:47:12;;;;;;;0.10;0.10;;;11.80;99.90;226.50;231333.00;;;;5089053;28;20713;-69
2022/05/15 01:49:40;;;;;;;0.10;0.10;;;11.70;99.90;226.50;231333.00;;;;5092044;28;20199;-69
2022/05/15 01:52:09;;;;;;;0.10;0.10;;;11.60;99.90;226.50;231333.00;;;;5074742;28;20278;-70
2022/05/15 01:54:39;;;;;;;0.10;0.10;;;11.50;1.00;226.50;231333.00;;;;5094444;28;20197;-69
2022/05/15 01:57:09;;;;;;;0.10;0.10;;;11.50;1.00;226.50;231333.00;;;;5075776;28;20713;-69
2022/05/15 01:59:38;;;;;;;0.10;0.10;;;11.40;1.00;226.50;231333.00;;;;5074360;28;20189;-69
2022/05/15 02:02:08;;;;;;;0.10;0.10;;;11.40;1.00;226.50;231333.00;;;;5073704;28;20217;-69
2022/05/15 02:04:36;;;;;;;0.05;0.05;;;11.40;1.00;226.50;231333.00;;;;5075346;28;20247;-69
2022/05/15 02:07:06;;;;;;;0.10;0.10;;;11.40;1.00;226.50;231333.00;;;;5075215;28;20260;-69
2022/05/15 02:09:35;;;;;;;0.10;0.10;;;11.20;1.00;226.50;231333.00;;;;5075414;28;20204;-69
2022/05/15 02:12:06;;;;;;;0.00;0.00;;;11.20;1.00;226.50;231333.00;;;;5076511;28;20293;-70
2022/05/15 02:14:34;;;;;;;0.10;0.10;;;11.10;1.00;226.50;231333.00;;;;5095208;28;20193;-70
2022/05/15 02:17:03;;;;;;;0.10;0.10;;;11.00;1.00;226.50;231333.00;;;;5076209;28;20212;-70
2022/05/15 02:19:35;;;;;;;0.10;0.10;;;11.00;1.00;226.50;231333.00;;;;5091171;28;20193;-73
2022/05/15 02:22:04;;;;;;;0.10;0.10;;;11.00;1.00;226.50;231333.00;;;;5092254;28;20217;-70
2022/05/15 02:24:32;;;;;;;0.05;0.05;;;11.00;1.00;226.50;231333.00;;;;5074451;28;20673;-70
2022/05/15 02:27:04;;;;;;;0.10;0.10;;;10.90;1.00;226.50;231333.00;;;;5073383;28;20220;-70
2022/05/15 02:29:32;;;;;;;0.10;0.10;;;11.00;1.00;226.50;231333.00;;;;5089969;28;20185;-70
2022/05/15 02:32:01;;;;;;;0.10;0.10;;;11.00;1.00;226.50;231333.00;;;;5066887;28;20235;-70
2022/05/15 02:34:29;;;;;;;0.10;0.10;;;10.90;1.00;226.50;231333.00;;;;5092127;28;20571;-69
2022/05/15 02:36:58;;;;;;;0.10;0.10;;;10.90;1.00;226.50;231333.00;;;;5073797;28;20682;-70
2022/05/15 02:39:26;;;;;;;0.10;0.10;;;11.00;1.00;226.50;231333.00;;;;5073677;28;20193;-69
2022/05/15 02:41:54;;;;;;;0.10;0.10;;;10.90;1.00;226.50;231333.00;;;;5072086;28;20216;-69
2022/05/15 02:44:24;;;;;;;0.10;0.10;;;10.90;1.00;226.50;231333.00;;;;5086588;28;20197;-70
2022/05/15 02:46:54;;;;;;;0.10;0.10;;;10.90;1.00;226.50;231333.00;;;;5075183;28;20207;-69
2022/05/15 02:52:09;;;;;;;0.00;0.00;;;10.90;1.00;226.50;231333.00;;;;5073768;28;20575;-68
2022/05/15 02:54:38;;;;;;;0.10;0.10;;;10.80;1.00;226.50;231333.00;;;;5073503;28;20193;-69
2022/05/15 02:57:09;;;;;;;0.10;0.10;;;10.80;1.00;226.50;231333.00;;;;5073029;28;20283;-68
2022/05/15 02:59:39;;;;;;;0.10;0.10;;;11.00;1.00;226.50;231333.00;;;;5082691;28;20186;-68
2022/05/15 03:02:08;;;;;;;0.10;0.10;;;10.90;1.00;226.50;231333.00;;;;5091710;28;20251;-68
2022/05/15 03:04:36;;;;;;;0.10;0.10;;;11.00;1.00;226.50;231333.00;;;;5073257;28;20199;-69
2022/05/15 03:07:06;;;;;;;0.10;0.10;;;11.00;1.00;226.50;231333.00;;;;5089988;28;20220;-69
2022/05/15 03:09:35;;;;;;;0.10;0.10;;;10.90;1.00;226.50;231333.00;;;;5091539;28;20215;-69
2022/05/15 03:12:04;;;;;;;0.10;0.10;;;10.70;1.00;226.50;231333.00;;;;5091600;28;20221;-69
2022/05/15 03:14:33;;;;;;;0.03;0.03;;;10.70;1.00;226.50;231333.00;;;;5073040;28;20224;-69
2022/05/15 03:17:03;;;;;;;0.10;0.10;;;10.70;1.00;226.50;231333.00;;;;5073693;28;20292;-69
2022/05/15 03:19:31;;;;;;;0.10;0.10;;;10.60;1.00;226.50;231333.00;;;;5091340;28;20193;-70
2022/05/15 03:21:59;;;;;;;0.10;0.10;;;10.50;1.00;226.50;231333.00;;;;5073241;28;20221;-69
2022/05/15 03:24:28;;;;;;;0.10;0.10;;;10.50;1.00;226.50;231333.00;;;;5091626;28;20662;-69
2022/05/15 03:26:58;;;;;;;0.10;0.10;;;10.50;1.00;226.50;231333.00;;;;5091447;28;20208;-69
2022/05/15 03:29:28;;;;;;;0.10;0.10;;;10.40;1.00;226.50;231333.00;;;;5073331;28;20221;-69
2022/05/15 03:31:56;;;;;;;0.10;0.10;;;10.40;1.00;226.50;231333.00;;;;5072535;28;20221;-69
2022/05/15 03:34:26;;;;;;;0.00;0.00;;;10.40;1.00;226.50;231333.00;;;;5061548;28;20232;-69
2022/05/15 03:36:55;;;;;;;0.00;0.00;;;10.40;1.00;226.50;231333.00;;;;5070796;28;20284;-68
2022/05/15 03:39:24;;;;;;;0.10;0.10;;;10.40;1.00;226.50;231333.00;;;;5073507;28;20617;-70
2022/05/15 03:41:53;;;;;;;0.10;0.10;;;10.40;1.00;226.50;231333.00;;;;5064685;28;20713;-68
2022/05/15 03:44:22;;;;;;;0.10;0.10;;;10.40;1.00;226.50;231333.00;;;;5092402;28;20177;-68
2022/05/15 03:46:51;;;;;;;0.10;0.10;;;10.40;1.00;226.50;231333.00;;;;5077328;28;20221;-70
2022/05/15 03:49:19;;;;;;;0.10;0.10;;;10.30;1.00;226.50;231333.00;;;;5089672;28;20208;-69
2022/05/15 03:51:49;;;;;;;0.10;0.10;;;10.30;1.00;226.50;231333.00;;;;5076650;28;20214;-69
2022/05/15 03:54:18;;;;;;;0.10;0.10;;;10.20;1.00;226.50;231333.00;;;;5077076;28;20193;-70
2022/05/15 03:56:52;;;;;;;0.10;0.10;;;10.20;1.00;226.50;231333.00;;;;5094918;28;20203;-69
2022/05/15 03:59:27;;;;;;;0.10;0.10;;;10.20;1.00;226.50;231333.00;;;;5074419;28;20212;-69
2022/05/15 04:01:56;;;;;;;0.10;0.10;;;10.10;1.00;226.50;231333.00;;;;5076862;28;20209;-69
2022/05/15 04:04:28;;;;;;;0.10;0.10;;;10.10;1.00;226.50;231333.00;;;;5093729;28;20197;-70
2022/05/15 04:06:58;;;;;;;0.10;0.10;;;10.10;1.00;226.50;231333.00;;;;5076014;28;20691;-69
2022/05/15 04:09:27;;;;;;;0.10;0.10;;;10.00;1.00;226.50;231333.00;;;;5094217;28;20530;-70
2022/05/15 04:11:56;;;;;;;0.10;0.10;;;10.00;1.00;226.50;231333.00;;;;5076293;28;20216;-69
2022/05/15 04:14:25;;;;;;;0.10;0.10;;;10.10;1.00;226.50;231333.00;;;;5094386;28;20192;-69
2022/05/15 04:16:54;;;;;;;0.08;0.08;;;10.00;1.00;226.50;231333.00;;;;5094325;28;20241;-70
2022/05/15 04:19:22;;;;;;;0.10;0.10;;;10.00;1.00;226.50;231333.00;;;;5094684;28;20189;-70
2022/05/15 04:21:50;;;;;;;0.00;0.00;;;10.00;1.00;226.50;231333.00;;;;5072127;28;20222;-70
2022/05/15 04:24:21;;;;;;;0.10;0.10;;;10.00;1.00;226.50;231333.00;;;;5093477;28;20719;-70
2022/05/15 04:26:49;;;;;;;0.10;0.10;;;10.00;1.00;226.50;231333.00;;;;5094000;28;20288;-70
2022/05/15 04:29:18;;;;;;;0.00;0.00;;;10.00;16.90;226.50;231333.00;;;;5072752;28;20193;-70
2022/05/15 04:31:47;;;;;;;0.00;0.00;;;10.00;52.80;226.50;231333.00;;;;5093328;28;20239;-70
2022/05/15 04:34:15;;;;;;;0.10;0.10;;;10.00;99.90;226.50;231333.00;;;;5094869;28;20197;-71
2022/05/15 04:36:43;;;;;;;0.10;0.10;;;10.10;99.90;226.50;231333.00;;;;5093818;28;20189;-71
2022/05/15 04:39:12;;;;;;;0.10;0.10;;;10.20;99.90;226.50;231333.00;;;;5093596;28;20238;-70
2022/05/15 04:41:48;;;;;;;0.10;0.10;;;10.20;99.90;226.50;231333.00;;;;5093932;28;20797;-70
2022/05/15 04:44:16;;;;;;;0.10;0.10;;;10.30;99.90;226.50;231333.00;;;;5093844;28;20513;-70
2022/05/15 04:46:45;;;;;;;0.10;0.10;;;10.40;99.90;226.50;231333.00;;;;5093896;28;20296;-70
2022/05/15 04:49:13;;;;;;;0.03;0.03;;;10.40;99.90;226.50;231333.00;;;;5093136;28;20224;-70
2022/05/15 04:51:41;;;;;;;0.10;0.10;;;10.50;99.90;226.50;231333.00;;;;5094054;28;20209;-70
2022/05/15 04:54:09;;;;;;;0.10;0.10;;;10.50;99.90;226.50;231333.00;;;;5094269;28;20192;-69
2022/05/15 04:56:38;;;;;;;0.10;0.10;;;10.60;97.80;226.50;231333.00;;;;5094547;28;20470;-71
2022/05/15 04:59:07;;;;;;;0.10;0.10;;;10.60;76.60;226.50;231333.00;;;;5093791;28;20197;-70
2022/05/15 05:01:36;;;;;;;0.10;0.10;;;10.50;97.60;226.50;231333.00;;;;5092856;28;20627;-70
2022/05/15 05:04:04;;;;;;;0.10;0.10;;;10.60;99.90;226.50;231333.00;;;;5092576;28;20205;-71
2022/05/15 05:06:34;;;;;;;0.10;0.10;;;10.60;94.60;226.50;231333.00;;;;5087995;28;20197;-70
2022/05/15 05:09:02;;;;;;;0.10;0.10;;;10.70;68.10;226.50;231333.00;;;;5081870;28;20282;-70
2022/05/15 05:11:30;;;;;;;0.10;0.10;;;10.80;56.00;226.50;231333.00;;;;5093782;28;20221;-70
2022/05/15 05:13:59;;;;;;;0.10;0.10;;;10.80;1.00;226.50;231333.00;;;;5093544;28;20181;-70
2022/05/15 05:16:30;;;;;;;0.10;0.10;;;10.90;1.00;226.50;231333.00;;;;5092764;28;20200;-70
2022/05/15 05:18:58;;;;;;;0.10;0.10;;;10.90;1.00;226.50;231333.00;;;;5091734;28;20197;-71
2022/05/15 05:21:27;;;;;;;0.10;0.10;;;10.90;1.00;226.50;231333.00;;;;5087617;28;20541;-71
2022/05/15 05:23:55;;;;;;;0.10;0.10;;;10.80;1.00;226.50;231333.00;;;;5093511;28;20189;-71
2022/05/15 05:26:23;;;;;;;0.10;0.10;;;10.70;1.00;226.50;231333.00;;;;5092700;28;20670;-71
2022/05/15 05:28:51;;;;;;;0.10;0.10;;;10.80;1.00;226.50;231333.00;;;;5092886;28;20209;-71
2022/05/15 05:31:20;;;;;;;0.00;0.00;;;10.90;1.00;226.50;231333.00;;;;5092372;28;20229;-71
2022/05/15 05:33:50;;;;;;;0.10;0.10;;;11.00;1.00;226.50;231333.00;;;;5092182;28;20195;-69
2022/05/15 05:36:19;;;;;;;0.00;0.00;;;11.10;1.00;226.50;231333.00;;;;5092907;28;20211;-69
2022/05/15 05:38:47;;;;;;;0.10;0.10;;;11.20;1.00;226.50;231333.00;;;;5093108;28;20208;-69
2022/05/15 05:41:15;;;;;;;0.03;0.03;;;11.30;1.00;226.50;231333.00;;;;5093236;28;20238;-68
2022/05/15 05:43:43;;;;;;;0.10;0.10;;;11.40;1.00;226.50;231333.00;;;;5092740;28;20544;-69
2022/05/15 05:46:12;;;;;;;0.10;0.10;;;11.40;1.00;226.50;231333.00;;;;5092854;28;20251;-70
2022/05/15 05:48:45;;;;;;;0.03;0.03;;;11.50;1.00;226.50;231333.00;;;;5088781;28;20221;-70
2022/05/15 05:51:16;;;;;;;0.10;0.10;;;11.50;1.00;226.50;231333.00;;;;5093072;28;20704;-69
2022/05/15 05:53:44;;;;;;;0.10;0.10;;;11.50;1.00;226.50;231333.00;;;;5093105;28;20205;-68
2022/05/15 05:56:13;;;;;;;0.10;0.10;;;11.70;1.00;226.50;231333.00;;;;5092605;28;20197;-69
2022/05/15 05:58:47;;;;;;;0.10;0.10;;;11.80;1.00;226.50;231333.00;;;;5093258;28;20249;-69
2022/05/15 06:01:16;;;;;;;0.00;0.00;;;11.80;1.00;226.50;231333.00;;;;5094581;28;20205;-69
2022/05/15 06:06:31;;;;;;;0.10;0.10;;;11.80;1.00;226.50;231333.00;;;;5092148;28;20219;-70
2022/05/15 06:08:59;;;;;;;0.05;0.05;;;11.90;1.00;226.50;231333.00;;;;5080781;28;20561;-70
2022/05/15 06:11:28;;;;;;;0.10;0.10;;;12.00;1.00;226.50;231333.00;;;;5092844;28;20205;-69
2022/05/15 06:13:56;;;;;;;0.10;0.10;;;12.20;1.00;226.50;231333.00;;;;5092447;28;20201;-69
2022/05/15 06:16:25;;;;;;;0.10;0.10;;;12.30;1.00;226.50;231333.00;;;;5068688;28;20216;-69
2022/05/15 06:18:54;;;;;;;0.10;0.10;;;12.50;1.00;226.50;231333.00;;;;5079479;28;20236;-70
2022/05/15 06:21:23;;;;;;;0.10;0.10;;;12.60;99.90;226.50;231333.00;;;;5084856;28;20214;-67
2022/05/15 06:23:54;;;;;;;0.10;0.10;;;12.80;99.90;226.50;231333.00;;;;5077798;28;20201;-68
2022/05/15 06:26:22;;;;;;;0.10;0.10;;;13.00;1.00;226.50;231333.00;;;;5091662;28;20193;-68
2022/05/15 06:28:51;;;;;;;0.10;0.10;;;13.00;1.00;226.50;231333.00;;;;5078166;28;20244;-67
2022/05/15 06:31:19;;;;;;;0.00;0.00;;;13.10;54.80;226.50;231333.00;;;;5091213;28;20633;-67
2022/05/15 06:33:48;;;;;;;0.10;0.10;;;13.20;1.00;226.50;231333.00;;;;5084699;28;20195;-68
2022/05/15 06:36:17;;;;;;;0.00;0.00;;;13.40;1.00;226.50;231333.00;;;;5088551;28;20200;-68
2022/05/15 06:38:45;;;;;;;0.00;0.00;;;13.50;1.00;226.50;231333.00;;;;5092160;28;20197;-68
2022/05/15 06:41:15;;;;;;;0.03;0.03;;;13.70;1.00;226.50;231333.00;;;;5092164;28;20213;-67
2022/05/15 06:43:44;;;;;;;0.10;0.10;;;13.90;1.00;226.50;231333.00;;;;5091871;28;20193;-68
2022/05/15 06:46:13;;;;;;;0.00;0.00;;;14.00;1.00;226.50;231333.00;;;;5092020;28;20727;-68
2022/05/15 06:48:41;;;;;;;0.10;0.10;;;14.10;1.00;226.50;231333.00;;;;5090813;28;20231;-68
2022/05/15 06:51:14;;;;;;;0.10;0.10;;;14.30;1.00;226.50;231333.00;;;;5079699;28;20721;-67
2022/05/15 06:53:42;;;;;;;0.10;0.10;;;14.50;99.90;226.50;231333.00;;;;5092161;28;20197;-67
2022/05/15 06:58:59;;;;;;;0.10;0.10;;;14.80;1.00;226.50;231333.00;;;;5088382;28;20197;-67
2022/05/15 07:01:28;;;;;;;0.03;0.03;;;15.00;1.00;226.50;231333.00;;;;5091754;28;20259;-68
2022/05/15 07:03:57;;;;;;;0.05;0.05;;;15.10;1.00;226.50;231333.00;;;;5091813;28;20193;-68
2022/05/15 07:06:26;;;;;;;0.00;0.00;;;15.30;1.00;226.50;231333.00;;;;5089977;28;20200;-68
2022/05/15 07:08:55;;;;;;;0.00;0.00;;;15.40;99.90;226.50;231333.00;;;;5091454;28;20205;-68
2022/05/15 07:11:23;;;;;;;0.03;0.03;;;15.50;1.00;226.50;231333.00;;;;5093228;28;20220;-69
2022/05/15 07:13:52;;;;;;;0.08;0.08;;;15.70;99.90;226.50;231333.00;;;;5092151;28;20533;-68
2022/05/15 07:16:22;;;;;;;0.00;0.00;;;15.90;99.90;226.50;231333.00;;;;5090998;28;20203;-68
2022/05/15 07:18:51;;;;;;;0.00;0.00;;;16.10;1.00;226.50;231333.00;;;;5091120;28;20246;-69
2022/05/15 07:21:20;;;;;;;0.00;0.00;;;16.20;1.00;226.50;231333.00;;;;5090887;28;20223;-70
2022/05/15 07:23:48;;;;;;;0.10;0.10;;;16.40;99.90;226.50;231333.00;;;;5082320;28;20192;-70
2022/05/15 07:26:17;;;;;;;0.00;0.00;;;16.50;99.90;226.50;231333.00;;;;5091588;28;20592;-71
2022/05/15 07:28:50;;;;;;;0.10;0.10;;;16.60;99.90;226.50;231333.00;;;;5090945;28;20205;-71
2022/05/15 07:31:21;;;;;;;0.00;0.00;;;16.80;99.90;226.50;231333.00;;;;5089526;28;20224;-71
2022/05/15 07:33:51;;;;;;;0.00;0.00;;;16.90;99.90;226.50;231333.00;;;;5083721;28;20684;-71
2022/05/15 07:36:20;;;;;;;0.00;0.00;;;17.10;99.90;226.50;231333.00;;;;5084421;28;20328;-70
2022/05/15 07:38:48;;;;;;;0.00;0.00;;;17.20;99.90;226.50;231333.00;;;;5086257;28;20208;-71
2022/05/15 07:41:17;;;;;;;0.00;0.00;;;17.40;99.90;226.50;231333.00;;;;5091290;28;20221;-71
2022/05/15 07:43:46;;;;;;;0.00;0.00;;;17.60;99.90;226.50;231333.00;;;;5090999;28;20193;-71
2022/05/15 07:46:14;;;;;;;0.00;0.00;;;17.80;99.90;226.50;231333.00;;;;5090714;28;20193;-71
2022/05/15 07:48:43;;;;;;;0.00;0.00;;;18.00;99.90;226.50;231333.00;;;;5084745;28;20229;-71
2022/05/15 07:51:13;;;;;;;0.00;0.00;;;18.20;99.90;226.50;231333.00;;;;5090897;28;20234;-71
2022/05/15 07:53:42;;;;;;;0.00;0.00;;;18.50;99.90;226.50;231333.00;;;;5091267;28;20666;-71
2022/05/15 07:56:13;;;;;;;0.00;0.00;;;18.70;99.90;226.50;231333.00;;;;5090746;28;20197;-71
2022/05/15 07:58:43;;;;;;;0.00;0.00;;;18.80;99.90;226.50;231333.00;;;;5090692;28;20197;-71
2022/05/15 08:01:11;;;;;;;0.00;0.00;;;18.90;99.90;226.50;231333.00;;;;5090849;28;20209;-71
2022/05/15 08:03:43;;;;;;;0.00;0.00;;;19.10;99.90;226.50;231333.00;;;;5090185;28;20734;-71
2022/05/15 08:09:06;;;;;;;0.00;0.00;;;19.30;99.90;226.50;231333.00;;;;5090783;28;20211;-72
2022/05/15 08:11:36;;;;;;;0.00;0.00;;;19.50;99.90;226.50;231333.00;;;;5090907;28;20284;-71
2022/05/15 08:14:08;;;;;;;0.00;0.00;;;19.60;99.90;226.50;231333.00;;;;5090995;28;20203;-71
2022/05/15 08:16:38;;;;;;;0.00;0.00;;;19.70;99.90;226.50;231333.00;;;;5090964;28;20193;-71
2022/05/15 08:24:45;;;;;;;0.00;0.00;;;20.30;99.90;226.50;231333.00;;;;5091678;28;20595;-72
2022/05/15 08:27:13;;;;;;;0.00;0.00;;;20.50;99.90;226.50;231333.00;;;;5090394;28;20196;-72
2022/05/15 08:29:42;;;;;;;0.00;0.00;;;20.60;99.90;226.50;231333.00;;;;5089832;28;20228;-74
2022/05/15 08:32:11;;;;;;;0.00;0.00;;;20.70;99.90;226.50;231333.00;;;;5087718;28;20261;-72
2022/05/15 08:34:44;;;;;;;0.00;0.00;;;20.90;99.90;226.50;231333.00;;;;5094691;28;20201;-72
2022/05/15 08:37:14;;;;;;;0.00;0.00;;;21.20;99.90;226.50;231333.00;;;;5094480;28;20262;-72
2022/05/15 08:39:43;;;;;;;0.00;0.00;;;21.40;99.90;226.50;231333.00;;;;5094853;28;20611;-72
2022/05/15 08:42:29;;;;;;;0.00;0.00;;;21.40;99.90;226.50;231333.00;;;;5095461;28;20227;-72
2022/05/15 08:45:02;;;;;;;0.00;0.00;;;21.50;99.90;226.50;231333.00;;;;5095386;28;20546;-72
2022/05/15 08:47:40;;;;;;;0.00;0.00;;;21.60;99.60;226.50;231333.00;;;;5093673;28;20193;-71
2022/05/15 08:50:15;;;;;;;0.00;0.00;;;21.70;99.50;226.50;231333.00;;;;5093985;28;20220;-72
2022/05/15 08:52:55;;;;;;;0.00;0.00;;;21.50;99.30;226.50;231333.00;;;;5084658;28;20299;-72
2022/05/15 08:55:29;;;;;;;0.00;0.00;;;21.40;99.90;226.50;231333.00;;;;5093756;28;20526;-72
2022/05/15 08:58:04;;;;;;;0.00;0.00;;;21.70;99.70;226.50;231333.00;;;;5093947;28;20190;-72
2022/05/15 09:00:39;;;;;;;0.00;0.00;;;21.90;99.10;226.50;231333.00;;;;5094320;28;20200;-72
2022/05/15 09:03:17;;;;;;;0.00;0.00;;;22.00;99.50;226.50;231333.00;;;;5092878;28;20200;-72
2022/05/15 09:05:56;;;;;;;0.00;0.00;;;22.00;99.00;226.50;231333.00;;;;5092166;28;20658;-72
2022/05/15 09:08:58;;;;;;;0.00;0.00;;;21.80;98.90;226.50;231333.00;;;;5085352;28;20197;-72
2022/05/15 09:11:44;;;;;;;0.00;0.00;;;21.90;99.50;226.50;231333.00;;;;5073883;28;20221;-72
2022/05/15 09:14:21;;;;;;;0.00;0.00;;;22.10;98.90;226.50;231333.00;;;;5093485;28;20211;-72
2022/05/15 09:16:57;;;;;;;0.00;0.00;;;22.40;98.80;226.50;231333.00;;;;5084322;28;20255;-72
2022/05/15 09:19:26;;;;;;;0.00;0.00;;;22.60;98.70;226.50;231333.00;;;;5056426;28;20204;-72
2022/05/15 09:21:59;;;;;;;0.00;0.00;;;22.80;98.30;226.50;231333.00;;;;5087590;28;20212;-72
2022/05/15 09:24:39;;;;;;;0.00;0.00;;;23.00;97.80;226.50;231333.00;;;;5086308;28;20666;-70
2022/05/15 09:27:17;;;;;;;0.00;0.00;;;23.10;97.40;226.50;231333.00;;;;5092888;28;20200;-70
2022/05/15 09:29:55;;;;;;;0.00;0.00;;;23.20;96.80;226.50;231333.00;;;;5092653;28;20247;-70
2022/05/15 09:32:30;;;;;;;0.00;0.00;;;22.80;97.00;226.50;231333.00;;;;5085092;28;20224;-70
2022/05/15 09:35:01;;;;;;;0.00;0.00;;;23.00;97.70;226.50;231333.00;;;;5093327;28;20197;-70
2022/05/15 09:40:40;;;;;;;0.00;0.00;;;23.40;97.00;226.50;231333.00;;;;5093595;28;20204;-70
2022/05/15 09:43:33;;;;;;;0.00;0.00;;;23.60;96.70;226.50;231333.00;;;;5092389;28;20193;-70
2022/05/15 09:46:13;;;;;;;0.00;0.00;;;23.90;95.60;226.50;231333.00;;;;5091382;28;20189;-71
2022/05/15 09:48:56;;;;;;;0.00;0.00;;;23.70;95.90;226.50;231333.00;;;;5087029;28;20182;-70
2022/05/15 09:51:43;;;;;;;0.00;0.00;;;23.90;95.90;226.50;231333.00;;;;5073044;28;20225;-70
2022/05/15 09:54:30;;;;;;;0.00;0.00;;;24.00;95.80;226.50;231333.00;;;;5073345;28;20609;-70
2022/05/15 09:57:20;;;;;;;0.00;0.00;;;24.20;94.90;226.50;231333.00;;;;5072254;28;20247;-71
2022/05/15 10:00:12;;;;;;;0.00;0.00;;;24.30;94.90;226.50;231333.00;;;;5072759;28;20193;-70
2022/05/15 10:02:47;;;;;;;0.00;0.00;;;24.50;94.20;226.50;231333.00;;;;5069222;28;20253;-71
2022/05/15 10:05:24;;;;;;;0.00;0.00;;;24.30;94.60;226.50;231333.00;;;;5082579;28;20201;-70
2022/05/15 10:08:02;;;;;;;0.00;0.00;;;24.30;94.80;226.50;231333.00;;;;5080921;28;20602;-70
2022/05/15 10:10:35;;;;;;;0.00;0.00;;;24.40;94.90;226.50;231333.00;;;;5072675;28;20275;-71
2022/05/15 10:13:11;;;;;;;0.00;0.00;;;24.40;94.70;226.50;231333.00;;;;5054631;28;20251;-70
2022/05/15 10:15:47;;;;;;;0.00;0.00;;;24.60;94.30;226.50;231333.00;;;;5092821;28;20726;-71
2022/05/15 10:18:19;;;;;;;0.00;0.00;;;24.70;94.00;226.50;231333.00;;;;5093244;28;20197;-71
2022/05/15 10:20:52;;;;;;;0.00;0.00;;;24.60;94.00;226.50;231333.00;;;;5093327;28;20198;-70
2022/05/15 10:23:28;;;;;;;0.00;0.00;;;24.80;94.10;226.50;231333.00;;;;5083349;28;20251;-71
2022/05/15 10:26:01;;;;;;;0.00;0.00;;;25.00;93.30;226.50;231333.00;;;;5092487;28;20200;-71
2022/05/15 10:28:44;;;;;;;0.00;0.00;;;25.10;93.60;226.50;231333.00;;;;5092693;28;20634;-71
2022/05/15 10:31:22;;;;;;;0.00;0.00;;;25.10;93.30;226.50;231333.00;;;;5092163;28;20225;-70
2022/05/15 10:33:54;;;;;;;0.00;0.00;;;24.80;92.80;226.50;231333.00;;;;5072661;28;20193;-70
2022/05/15 10:36:42;;;;;;;0.00;0.00;;;25.00;92.40;226.50;231333.00;;;;5073379;28;20190;-70
2022/05/15 10:39:24;;;;;;;0.00;0.00;;;24.50;92.60;226.50;231333.00;;;;5074530;28;20194;-71
2022/05/15 10:42:07;;;;;;;0.00;0.00;;;24.90;92.80;226.50;231333.00;;;;5073271;28;20236;-71
2022/05/15 10:45:04;;;;;;;0.00;0.00;;;25.10;92.50;226.50;231333.00;;;;5073272;28;20193;-71
2022/05/15 10:47:42;;;;;;;0.00;0.00;;;25.10;92.80;226.50;231333.00;;;;5085332;28;20555;-70
2022/05/15 10:50:25;;;;;;;0.00;0.00;;;25.30;92.20;226.50;231333.00;;;;5093458;28;20246;-70
2022/05/15 10:59:21;;;;;;;0.00;0.00;;;25.50;91.70;226.50;231333.00;;;;5095466;28;20622;-70
2022/05/15 11:02:05;;;;;;;0.00;0.00;;;25.70;90.70;226.50;231333.00;;;;5085984;28;20228;-70
2022/05/15 11:04:48;;;;;;;0.00;0.00;;;25.10;91.10;226.50;231333.00;;;;5096694;28;20646;-71
2022/05/15 11:07:25;;;;;;;0.00;0.00;;;25.30;91.50;226.50;231333.00;;;;5085017;28;20198;-71
2022/05/15 11:10:12;;;;;;;0.00;0.00;;;25.70;90.10;226.50;231333.00;;;;5078305;28;20189;-71
2022/05/15 11:13:01;;;;;;;0.00;0.00;;;26.10;90.60;226.50;231333.00;;;;5078307;28;20229;-71
2022/05/15 11:15:57;;;;;;;0.00;0.00;;;26.50;90.50;226.50;231333.00;;;;5081050;28;20206;-71
2022/05/15 11:18:48;;;;;;;0.00;0.00;;;26.80;90.20;226.50;231333.00;;;;5084565;28;20196;-71
2022/05/15 11:21:29;;;;;;;0.00;0.00;;;26.50;90.10;226.50;231333.00;;;;5090281;28;20619;-72
2022/05/15 11:24:04;;;;;;;0.00;0.00;;;26.80;88.80;226.50;231333.00;;;;5071886;28;20192;-72
2022/05/15 11:26:41;;;;;;;0.00;0.00;;;26.50;88.90;226.50;231333.00;;;;5071811;28;20716;-72
2022/05/15 11:29:13;;;;;;;0.00;0.00;;;26.60;89.10;226.50;231333.00;;;;5071956;28;20203;-72